sensor_id;sensor_type;location;lat;lon;timestamp;P1;P2;P0
72793;PMS5003;63436;26.334;50.194;2023-03-12T00:01:31;34;32;
72793;PMS5003;63436;26.334;50.194;2023-03-12T00:03:56;40;38;
72793;PMS5003;63436;26.334;50.194;2023-03-12T00:06:22;34;32;
72793;PMS5003;63436;26.334;50.194;2023-03-12T00:08:49;36;32;
72793;PMS5003;63436;26.334;50.194;2023-03-12T00:11:14;35;33;
72793;PMS5003;63436;26.334;50.194;2023-03-12T00:13:38;31;30;
72793;PMS5003;63436;26.334;50.194;2023-03-12T00:16:06;29;28;
72793;PMS5003;63436;26.334;50.194;2023-03-12T00:18:28;36;31;
72793;PMS5003;63436;26.334;50.194;2023-03-12T00:20:54;29;29;
72793;PMS5003;63436;26.334;50.194;2023-03-12T00:23:26;29;27;
72793;PMS5003;63436;26.334;50.194;2023-03-12T00:25:52;33;30;
72793;PMS5003;63436;26.334;50.194;2023-03-12T00:28:17;31;30;
72793;PMS5003;63436;26.334;50.194;2023-03-12T00:30:43;33;31;
72793;PMS5003;63436;26.334;50.194;2023-03-12T00:33:09;32;32;
72793;PMS5003;63436;26.334;50.194;2023-03-12T00:35:33;31;30;
72793;PMS5003;63436;26.334;50.194;2023-03-12T00:38:00;33;32;
72793;PMS5003;63436;26.334;50.194;2023-03-12T00:40:25;30;29;
72793;PMS5003;63436;26.334;50.194;2023-03-12T00:42:50;29;29;
72793;PMS5003;63436;26.334;50.194;2023-03-12T00:45:17;31;31;
72793;PMS5003;63436;26.334;50.194;2023-03-12T00:47:41;30;28;
72793;PMS5003;63436;26.334;50.194;2023-03-12T00:50:07;32;27;
72793;PMS5003;63436;26.334;50.194;2023-03-12T00:52:32;31;31;
72793;PMS5003;63436;26.334;50.194;2023-03-12T00:54:57;28;27;
72793;PMS5003;63436;26.334;50.194;2023-03-12T00:57:23;33;31;
72793;PMS5003;63436;26.334;50.194;2023-03-12T00:59:50;31;28;
72793;PMS5003;63436;26.334;50.194;2023-03-12T01:02:15;29;29;
72793;PMS5003;63436;26.334;50.194;2023-03-12T01:04:40;26;26;
72793;PMS5003;63436;26.334;50.194;2023-03-12T01:07:06;32;29;
72793;PMS5003;63436;26.334;50.194;2023-03-12T01:09:31;31;29;
72793;PMS5003;63436;26.334;50.194;2023-03-12T01:11:56;30;27;
72793;PMS5003;63436;26.334;50.194;2023-03-12T01:14:22;36;29;
72793;PMS5003;63436;26.334;50.194;2023-03-12T01:16:47;34;31;
72793;PMS5003;63436;26.334;50.194;2023-03-12T01:19:12;28;27;
72793;PMS5003;63436;26.334;50.194;2023-03-12T01:21:38;30;27;
72793;PMS5003;63436;26.334;50.194;2023-03-12T01:24:03;32;29;
72793;PMS5003;63436;26.334;50.194;2023-03-12T01:26:29;31;29;
72793;PMS5003;63436;26.334;50.194;2023-03-12T01:28:55;28;27;
72793;PMS5003;63436;26.334;50.194;2023-03-12T01:31:20;30;29;
72793;PMS5003;63436;26.334;50.194;2023-03-12T01:33:47;32;30;
72793;PMS5003;63436;26.334;50.194;2023-03-12T01:36:15;28;28;
72793;PMS5003;63436;26.334;50.194;2023-03-12T01:38:37;33;29;
72793;PMS5003;63436;26.334;50.194;2023-03-12T01:41:03;28;28;
72793;PMS5003;63436;26.334;50.194;2023-03-12T01:43:29;34;28;
72793;PMS5003;63436;26.334;50.194;2023-03-12T01:48:18;36;31;
72793;PMS5003;63436;26.334;50.194;2023-03-12T01:50:44;31;28;
72793;PMS5003;63436;26.334;50.194;2023-03-12T01:53:09;29;29;
72793;PMS5003;63436;26.334;50.194;2023-03-12T01:55:35;31;29;
72793;PMS5003;63436;26.334;50.194;2023-03-12T01:58:01;28;27;
72793;PMS5003;63436;26.334;50.194;2023-03-12T02:00:26;34;31;
72793;PMS5003;63436;26.334;50.194;2023-03-12T02:02:52;36;31;
72793;PMS5003;63436;26.334;50.194;2023-03-12T02:05:19;32;30;
72793;PMS5003;63436;26.334;50.194;2023-03-12T02:07:43;30;26;
72793;PMS5003;63436;26.334;50.194;2023-03-12T02:10:09;33;30;
72793;PMS5003;63436;26.334;50.194;2023-03-12T02:12:35;31;29;
72793;PMS5003;63436;26.334;50.194;2023-03-12T02:15:00;32;30;
72793;PMS5003;63436;26.334;50.194;2023-03-12T02:17:25;33;33;
72793;PMS5003;63436;26.334;50.194;2023-03-12T02:19:53;29;29;
72793;PMS5003;63436;26.334;50.194;2023-03-12T02:22:16;33;30;
72793;PMS5003;63436;26.334;50.194;2023-03-12T02:24:43;40;30;
72793;PMS5003;63436;26.334;50.194;2023-03-12T02:27:08;32;30;
72793;PMS5003;63436;26.334;50.194;2023-03-12T02:29:32;35;32;
72793;PMS5003;63436;26.334;50.194;2023-03-12T02:31:58;35;33;
72793;PMS5003;63436;26.334;50.194;2023-03-12T02:34:24;37;33;
72793;PMS5003;63436;26.334;50.194;2023-03-12T02:36:49;37;33;
72793;PMS5003;63436;26.334;50.194;2023-03-12T02:39:14;31;31;
72793;PMS5003;63436;26.334;50.194;2023-03-12T02:41:41;36;36;
72793;PMS5003;63436;26.334;50.194;2023-03-12T02:44:07;36;36;
72793;PMS5003;63436;26.334;50.194;2023-03-12T02:46:33;30;29;
72793;PMS5003;63436;26.334;50.194;2023-03-12T02:48:58;36;34;
72793;PMS5003;63436;26.334;50.194;2023-03-12T02:51:23;32;32;
72793;PMS5003;63436;26.334;50.194;2023-03-12T02:53:49;38;35;
72793;PMS5003;63436;26.334;50.194;2023-03-12T02:56:15;35;33;
72793;PMS5003;63436;26.334;50.194;2023-03-12T02:58:40;36;34;
72793;PMS5003;63436;26.334;50.194;2023-03-12T03:01:06;39;35;
72793;PMS5003;63436;26.334;50.194;2023-03-12T03:03:31;38;37;
72793;PMS5003;63436;26.334;50.194;2023-03-12T03:05:56;38;35;
72793;PMS5003;63436;26.334;50.194;2023-03-12T03:08:21;39;36;
72793;PMS5003;63436;26.334;50.194;2023-03-12T03:10:47;37;36;
72793;PMS5003;63436;26.334;50.194;2023-03-12T03:13:12;36;35;
72793;PMS5003;63436;26.334;50.194;2023-03-12T03:15:37;39;37;
72793;PMS5003;63436;26.334;50.194;2023-03-12T03:18:04;38;38;
72793;PMS5003;63436;26.334;50.194;2023-03-12T03:20:30;40;39;
72793;PMS5003;63436;26.334;50.194;2023-03-12T03:22:54;41;38;
72793;PMS5003;63436;26.334;50.194;2023-03-12T03:25:20;40;38;
72793;PMS5003;63436;26.334;50.194;2023-03-12T03:27:45;41;38;
72793;PMS5003;63436;26.334;50.194;2023-03-12T03:30:12;42;39;
72793;PMS5003;63436;26.334;50.194;2023-03-12T03:32:37;38;38;
72793;PMS5003;63436;26.334;50.194;2023-03-12T03:35:02;37;35;
72793;PMS5003;63436;26.334;50.194;2023-03-12T03:37:27;40;38;
72793;PMS5003;63436;26.334;50.194;2023-03-12T03:39:53;41;37;
72793;PMS5003;63436;26.334;50.194;2023-03-12T03:42:18;42;37;
72793;PMS5003;63436;26.334;50.194;2023-03-12T03:44:44;42;39;
72793;PMS5003;63436;26.334;50.194;2023-03-12T03:47:09;38;37;
72793;PMS5003;63436;26.334;50.194;2023-03-12T03:49:34;41;38;
72793;PMS5003;63436;26.334;50.194;2023-03-12T03:52:01;42;38;
72793;PMS5003;63436;26.334;50.194;2023-03-12T03:54:25;39;38;
72793;PMS5003;63436;26.334;50.194;2023-03-12T03:56:50;41;40;
72793;PMS5003;63436;26.334;50.194;2023-03-12T03:59:17;48;40;
72793;PMS5003;63436;26.334;50.194;2023-03-12T04:01:42;39;38;
72793;PMS5003;63436;26.334;50.194;2023-03-12T04:04:07;45;41;
72793;PMS5003;63436;26.334;50.194;2023-03-12T04:06:34;41;37;
72793;PMS5003;63436;26.334;50.194;2023-03-12T04:08:58;40;37;
72793;PMS5003;63436;26.334;50.194;2023-03-12T04:11:24;40;37;
72793;PMS5003;63436;26.334;50.194;2023-03-12T04:13:50;43;37;
72793;PMS5003;63436;26.334;50.194;2023-03-12T04:16:15;34;34;
72793;PMS5003;63436;26.334;50.194;2023-03-12T04:18:40;34;33;
72793;PMS5003;63436;26.334;50.194;2023-03-12T04:21:07;42;38;
72793;PMS5003;63436;26.334;50.194;2023-03-12T04:23:31;43;38;
72793;PMS5003;63436;26.334;50.194;2023-03-12T04:25:57;42;35;
72793;PMS5003;63436;26.334;50.194;2023-03-12T04:28:23;41;38;
72793;PMS5003;63436;26.334;50.194;2023-03-12T04:33:13;40;36;
72793;PMS5003;63436;26.334;50.194;2023-03-12T04:35:38;41;37;
72793;PMS5003;63436;26.334;50.194;2023-03-12T04:38:04;35;34;
72793;PMS5003;63436;26.334;50.194;2023-03-12T04:40:29;39;37;
72793;PMS5003;63436;26.334;50.194;2023-03-12T04:42:55;41;39;
72793;PMS5003;63436;26.334;50.194;2023-03-12T04:45:21;41;40;
72793;PMS5003;63436;26.334;50.194;2023-03-12T04:47:46;44;39;
72793;PMS5003;63436;26.334;50.194;2023-03-12T04:50:13;38;35;
72793;PMS5003;63436;26.334;50.194;2023-03-12T04:52:37;37;37;
72793;PMS5003;63436;26.334;50.194;2023-03-12T04:55:03;42;39;
72793;PMS5003;63436;26.334;50.194;2023-03-12T04:57:29;42;39;
72793;PMS5003;63436;26.334;50.194;2023-03-12T04:59:53;36;34;
72793;PMS5003;63436;26.334;50.194;2023-03-12T05:02:18;38;37;
72793;PMS5003;63436;26.334;50.194;2023-03-12T05:04:44;40;38;
72793;PMS5003;63436;26.334;50.194;2023-03-12T05:07:09;39;36;
72793;PMS5003;63436;26.334;50.194;2023-03-12T05:09:35;38;36;
72793;PMS5003;63436;26.334;50.194;2023-03-12T05:12:02;37;34;
72793;PMS5003;63436;26.334;50.194;2023-03-12T05:14:26;40;36;
72793;PMS5003;63436;26.334;50.194;2023-03-12T05:19:18;39;39;
72793;PMS5003;63436;26.334;50.194;2023-03-12T05:21:43;44;39;
72793;PMS5003;63436;26.334;50.194;2023-03-12T05:24:08;36;36;
72793;PMS5003;63436;26.334;50.194;2023-03-12T05:26:34;44;40;
72793;PMS5003;63436;26.334;50.194;2023-03-12T05:28:59;43;40;
72793;PMS5003;63436;26.334;50.194;2023-03-12T05:31:24;38;37;
72793;PMS5003;63436;26.334;50.194;2023-03-12T05:33:51;44;42;
72793;PMS5003;63436;26.334;50.194;2023-03-12T05:36:16;39;37;
72793;PMS5003;63436;26.334;50.194;2023-03-12T05:38:41;40;40;
72793;PMS5003;63436;26.334;50.194;2023-03-12T05:41:07;45;43;
72793;PMS5003;63436;26.334;50.194;2023-03-12T05:43:32;38;38;
72793;PMS5003;63436;26.334;50.194;2023-03-12T05:45:57;41;39;
72793;PMS5003;63436;26.334;50.194;2023-03-12T05:48:23;42;41;
72793;PMS5003;63436;26.334;50.194;2023-03-12T05:50:48;42;40;
72793;PMS5003;63436;26.334;50.194;2023-03-12T05:53:14;39;38;
72793;PMS5003;63436;26.334;50.194;2023-03-12T05:55:41;43;42;
72793;PMS5003;63436;26.334;50.194;2023-03-12T05:58:05;47;43;
72793;PMS5003;63436;26.334;50.194;2023-03-12T06:00:30;41;41;
72793;PMS5003;63436;26.334;50.194;2023-03-12T06:02:56;45;42;
72793;PMS5003;63436;26.334;50.194;2023-03-12T06:05:21;43;41;
72793;PMS5003;63436;26.334;50.194;2023-03-12T06:07:47;47;43;
72793;PMS5003;63436;26.334;50.194;2023-03-12T06:10:13;47;46;
72793;PMS5003;63436;26.334;50.194;2023-03-12T06:12:38;50;39;
72793;PMS5003;63436;26.334;50.194;2023-03-12T06:15:04;48;45;
72793;PMS5003;63436;26.334;50.194;2023-03-12T06:17:29;43;40;
72793;PMS5003;63436;26.334;50.194;2023-03-12T06:19:55;44;42;
72793;PMS5003;63436;26.334;50.194;2023-03-12T06:22:20;43;43;
72793;PMS5003;63436;26.334;50.194;2023-03-12T06:24:47;45;44;
72793;PMS5003;63436;26.334;50.194;2023-03-12T06:27:11;52;45;
72793;PMS5003;63436;26.334;50.194;2023-03-12T06:29:37;45;44;
72793;PMS5003;63436;26.334;50.194;2023-03-12T06:32:03;44;41;
72793;PMS5003;63436;26.334;50.194;2023-03-12T06:34:28;45;43;
72793;PMS5003;63436;26.334;50.194;2023-03-12T06:36:53;43;42;
72793;PMS5003;63436;26.334;50.194;2023-03-12T06:39:20;40;39;
72793;PMS5003;63436;26.334;50.194;2023-03-12T06:41:43;42;40;
72793;PMS5003;63436;26.334;50.194;2023-03-12T06:44:09;42;41;
72793;PMS5003;63436;26.334;50.194;2023-03-12T06:46:35;41;41;
72793;PMS5003;63436;26.334;50.194;2023-03-12T06:49:00;38;38;
72793;PMS5003;63436;26.334;50.194;2023-03-12T06:51:25;42;38;
72793;PMS5003;63436;26.334;50.194;2023-03-12T06:53:52;47;44;
72793;PMS5003;63436;26.334;50.194;2023-03-12T06:56:16;44;39;
72793;PMS5003;63436;26.334;50.194;2023-03-12T06:58:41;42;41;
72793;PMS5003;63436;26.334;50.194;2023-03-12T07:01:07;40;40;
72793;PMS5003;63436;26.334;50.194;2023-03-12T07:03:32;40;40;
72793;PMS5003;63436;26.334;50.194;2023-03-12T07:05:58;43;41;
72793;PMS5003;63436;26.334;50.194;2023-03-12T07:08:24;44;40;
72793;PMS5003;63436;26.334;50.194;2023-03-12T07:10:48;44;41;
72793;PMS5003;63436;26.334;50.194;2023-03-12T07:13:14;40;40;
72793;PMS5003;63436;26.334;50.194;2023-03-12T07:15:39;42;41;
72793;PMS5003;63436;26.334;50.194;2023-03-12T07:18:05;43;42;
72793;PMS5003;63436;26.334;50.194;2023-03-12T07:20:30;43;40;
72793;PMS5003;63436;26.334;50.194;2023-03-12T07:22:57;46;45;
72793;PMS5003;63436;26.334;50.194;2023-03-12T07:25:22;48;45;
72793;PMS5003;63436;26.334;50.194;2023-03-12T07:27:47;49;46;
72793;PMS5003;63436;26.334;50.194;2023-03-12T07:30:13;47;47;
72793;PMS5003;63436;26.334;50.194;2023-03-12T07:32:38;48;47;
72793;PMS5003;63436;26.334;50.194;2023-03-12T07:35:07;40;40;
72793;PMS5003;63436;26.334;50.194;2023-03-12T07:37:30;43;43;
72793;PMS5003;63436;26.334;50.194;2023-03-12T07:39:54;46;45;
72793;PMS5003;63436;26.334;50.194;2023-03-12T07:42:19;51;49;
72793;PMS5003;63436;26.334;50.194;2023-03-12T07:44:46;56;49;
72793;PMS5003;63436;26.334;50.194;2023-03-12T07:47:11;49;48;
72793;PMS5003;63436;26.334;50.194;2023-03-12T07:49:36;47;47;
72793;PMS5003;63436;26.334;50.194;2023-03-12T07:52:02;55;46;
72793;PMS5003;63436;26.334;50.194;2023-03-12T07:54:27;52;51;
72793;PMS5003;63436;26.334;50.194;2023-03-12T07:56:53;48;46;
72793;PMS5003;63436;26.334;50.194;2023-03-12T07:59:19;50;47;
72793;PMS5003;63436;26.334;50.194;2023-03-12T08:01:44;49;48;
72793;PMS5003;63436;26.334;50.194;2023-03-12T08:04:10;50;47;
72793;PMS5003;63436;26.334;50.194;2023-03-12T08:06:35;48;47;
72793;PMS5003;63436;26.334;50.194;2023-03-12T08:09:01;48;44;
72793;PMS5003;63436;26.334;50.194;2023-03-12T08:11:26;49;46;
72793;PMS5003;63436;26.334;50.194;2023-03-12T08:13:51;46;44;
72793;PMS5003;63436;26.334;50.194;2023-03-12T08:16:16;40;38;
72793;PMS5003;63436;26.334;50.194;2023-03-12T08:18:41;41;39;
72793;PMS5003;63436;26.334;50.194;2023-03-12T08:21:07;44;42;
72793;PMS5003;63436;26.334;50.194;2023-03-12T08:23:32;42;42;
72793;PMS5003;63436;26.334;50.194;2023-03-12T08:25:58;36;36;
72793;PMS5003;63436;26.334;50.194;2023-03-12T08:28:23;38;38;
72793;PMS5003;63436;26.334;50.194;2023-03-12T08:30:49;35;34;
72793;PMS5003;63436;26.334;50.194;2023-03-12T08:33:13;38;38;
72793;PMS5003;63436;26.334;50.194;2023-03-12T08:35:40;50;47;
72793;PMS5003;63436;26.334;50.194;2023-03-12T08:38:05;37;37;
72793;PMS5003;63436;26.334;50.194;2023-03-12T08:40:30;45;41;
72793;PMS5003;63436;26.334;50.194;2023-03-12T08:42:57;44;41;
72793;PMS5003;63436;26.334;50.194;2023-03-12T08:45:21;35;33;
72793;PMS5003;63436;26.334;50.194;2023-03-12T08:47:47;37;37;
72793;PMS5003;63436;26.334;50.194;2023-03-12T08:50:14;48;47;
72793;PMS5003;63436;26.334;50.194;2023-03-12T08:52:37;100;73;
72793;PMS5003;63436;26.334;50.194;2023-03-12T08:55:03;51;45;
72793;PMS5003;63436;26.334;50.194;2023-03-12T08:57:28;40;39;
72793;PMS5003;63436;26.334;50.194;2023-03-12T08:59:54;49;42;
72793;PMS5003;63436;26.334;50.194;2023-03-12T09:02:19;41;40;
72793;PMS5003;63436;26.334;50.194;2023-03-12T09:04:46;45;40;
72793;PMS5003;63436;26.334;50.194;2023-03-12T09:07:11;42;42;
72793;PMS5003;63436;26.334;50.194;2023-03-12T09:09:36;43;42;
72793;PMS5003;63436;26.334;50.194;2023-03-12T09:12:02;41;38;
72793;PMS5003;63436;26.334;50.194;2023-03-12T09:14:27;41;41;
72793;PMS5003;63436;26.334;50.194;2023-03-12T09:16:53;46;45;
72793;PMS5003;63436;26.334;50.194;2023-03-12T09:19:19;47;47;
72793;PMS5003;63436;26.334;50.194;2023-03-12T09:21:44;41;38;
72793;PMS5003;63436;26.334;50.194;2023-03-12T09:24:10;36;34;
72793;PMS5003;63436;26.334;50.194;2023-03-12T09:26:37;38;35;
72793;PMS5003;63436;26.334;50.194;2023-03-12T09:29:00;40;40;
72793;PMS5003;63436;26.334;50.194;2023-03-12T09:31:27;39;39;
72793;PMS5003;63436;26.334;50.194;2023-03-12T09:33:52;38;37;
72793;PMS5003;63436;26.334;50.194;2023-03-12T09:36:17;41;41;
72793;PMS5003;63436;26.334;50.194;2023-03-12T09:38:44;39;36;
72793;PMS5003;63436;26.334;50.194;2023-03-12T09:43:36;37;35;
72793;PMS5003;63436;26.334;50.194;2023-03-12T09:46:00;46;39;
72793;PMS5003;63436;26.334;50.194;2023-03-12T09:48:26;40;37;
72793;PMS5003;63436;26.334;50.194;2023-03-12T09:50:49;35;34;
72793;PMS5003;63436;26.334;50.194;2023-03-12T09:53:16;35;32;
72793;PMS5003;63436;26.334;50.194;2023-03-12T09:55:40;34;33;
72793;PMS5003;63436;26.334;50.194;2023-03-12T09:58:09;38;38;
72793;PMS5003;63436;26.334;50.194;2023-03-12T10:00:33;35;35;
72793;PMS5003;63436;26.334;50.194;2023-03-12T10:03:08;42;38;
72793;PMS5003;63436;26.334;50.194;2023-03-12T10:05:23;43;43;
72793;PMS5003;63436;26.334;50.194;2023-03-12T10:07:48;68;56;
72793;PMS5003;63436;26.334;50.194;2023-03-12T10:10:15;87;65;
72793;PMS5003;63436;26.334;50.194;2023-03-12T10:12:41;47;44;
72793;PMS5003;63436;26.334;50.194;2023-03-12T10:17:33;60;48;
72793;PMS5003;63436;26.334;50.194;2023-03-12T10:19:56;46;45;
72793;PMS5003;63436;26.334;50.194;2023-03-12T10:22:22;49;45;
72793;PMS5003;63436;26.334;50.194;2023-03-12T10:24:47;44;44;
72793;PMS5003;63436;26.334;50.194;2023-03-12T10:27:10;45;43;
72793;PMS5003;63436;26.334;50.194;2023-03-12T10:29:37;41;38;
72793;PMS5003;63436;26.334;50.194;2023-03-12T10:32:03;45;44;
72793;PMS5003;63436;26.334;50.194;2023-03-12T10:34:29;50;45;
72793;PMS5003;63436;26.334;50.194;2023-03-12T10:36:52;47;44;
72793;PMS5003;63436;26.334;50.194;2023-03-12T10:39:18;46;42;
72793;PMS5003;63436;26.334;50.194;2023-03-12T10:41:43;37;35;
72793;PMS5003;63436;26.334;50.194;2023-03-12T10:44:10;41;41;
72793;PMS5003;63436;26.334;50.194;2023-03-12T10:46:40;90;65;
72793;PMS5003;63436;26.334;50.194;2023-03-12T10:51:24;60;51;
72793;PMS5003;63436;26.334;50.194;2023-03-12T10:53:49;53;48;
72793;PMS5003;63436;26.334;50.194;2023-03-12T10:56:16;44;42;
72793;PMS5003;63436;26.334;50.194;2023-03-12T10:58:41;47;44;
72793;PMS5003;63436;26.334;50.194;2023-03-12T11:01:14;52;46;
72793;PMS5003;63436;26.334;50.194;2023-03-12T11:03:31;44;41;
72793;PMS5003;63436;26.334;50.194;2023-03-12T11:05:57;41;38;
72793;PMS5003;63436;26.334;50.194;2023-03-12T11:08:24;46;46;
72793;PMS5003;63436;26.334;50.194;2023-03-12T11:10:48;45;42;
72793;PMS5003;63436;26.334;50.194;2023-03-12T11:13:20;54;49;
72793;PMS5003;63436;26.334;50.194;2023-03-12T11:15:41;51;49;
72793;PMS5003;63436;26.334;50.194;2023-03-12T11:20:30;50;45;
72793;PMS5003;63436;26.334;50.194;2023-03-12T11:22:57;47;43;
72793;PMS5003;63436;26.334;50.194;2023-03-12T11:25:22;50;47;
72793;PMS5003;63436;26.334;50.194;2023-03-12T11:27:48;49;47;
72793;PMS5003;63436;26.334;50.194;2023-03-12T11:30:15;49;46;
72793;PMS5003;63436;26.334;50.194;2023-03-12T11:32:39;43;43;
72793;PMS5003;63436;26.334;50.194;2023-03-12T11:35:08;46;46;
72793;PMS5003;63436;26.334;50.194;2023-03-12T11:37:34;48;44;
72793;PMS5003;63436;26.334;50.194;2023-03-12T11:39:59;48;43;
72793;PMS5003;63436;26.334;50.194;2023-03-12T11:42:24;44;43;
72793;PMS5003;63436;26.334;50.194;2023-03-12T11:44:49;49;48;
72793;PMS5003;63436;26.334;50.194;2023-03-12T11:47:15;47;44;
72793;PMS5003;63436;26.334;50.194;2023-03-12T11:49:40;43;42;
72793;PMS5003;63436;26.334;50.194;2023-03-12T11:52:05;43;40;
72793;PMS5003;63436;26.334;50.194;2023-03-12T11:54:31;43;40;
72793;PMS5003;63436;26.334;50.194;2023-03-12T11:56:53;44;39;
72793;PMS5003;63436;26.334;50.194;2023-03-12T11:59:21;41;39;
72793;PMS5003;63436;26.334;50.194;2023-03-12T12:01:48;48;47;
72793;PMS5003;63436;26.334;50.194;2023-03-12T12:04:14;42;39;
72793;PMS5003;63436;26.334;50.194;2023-03-12T12:06:36;48;45;
72793;PMS5003;63436;26.334;50.194;2023-03-12T12:09:04;50;45;
72793;PMS5003;63436;26.334;50.194;2023-03-12T12:11:29;47;44;
72793;PMS5003;63436;26.334;50.194;2023-03-12T12:13:54;50;46;
72793;PMS5003;63436;26.334;50.194;2023-03-12T12:16:20;48;44;
72793;PMS5003;63436;26.334;50.194;2023-03-12T12:18:45;47;44;
72793;PMS5003;63436;26.334;50.194;2023-03-12T12:21:09;49;46;
72793;PMS5003;63436;26.334;50.194;2023-03-12T12:23:35;50;47;
72793;PMS5003;63436;26.334;50.194;2023-03-12T12:26:01;52;46;
72793;PMS5003;63436;26.334;50.194;2023-03-12T12:28:29;47;46;
72793;PMS5003;63436;26.334;50.194;2023-03-12T12:30:52;50;47;
72793;PMS5003;63436;26.334;50.194;2023-03-12T12:33:18;49;46;
72793;PMS5003;63436;26.334;50.194;2023-03-12T12:35:39;54;53;
72793;PMS5003;63436;26.334;50.194;2023-03-12T12:38:06;49;48;
72793;PMS5003;63436;26.334;50.194;2023-03-12T12:40:30;47;47;
72793;PMS5003;63436;26.334;50.194;2023-03-12T12:42:57;47;46;
72793;PMS5003;63436;26.334;50.194;2023-03-12T12:45:21;50;46;
72793;PMS5003;63436;26.334;50.194;2023-03-12T12:47:48;51;46;
72793;PMS5003;63436;26.334;50.194;2023-03-12T12:50:13;48;47;
72793;PMS5003;63436;26.334;50.194;2023-03-12T12:52:38;51;45;
72793;PMS5003;63436;26.334;50.194;2023-03-12T12:55:05;48;45;
72793;PMS5003;63436;26.334;50.194;2023-03-12T12:57:30;51;49;
72793;PMS5003;63436;26.334;50.194;2023-03-12T12:59:59;48;43;
72793;PMS5003;63436;26.334;50.194;2023-03-12T13:02:20;50;46;
72793;PMS5003;63436;26.334;50.194;2023-03-12T13:04:44;48;46;
72793;PMS5003;63436;26.334;50.194;2023-03-12T13:09:37;45;45;
72793;PMS5003;63436;26.334;50.194;2023-03-12T13:12:05;51;46;
72793;PMS5003;63436;26.334;50.194;2023-03-12T13:14:36;46;43;
72793;PMS5003;63436;26.334;50.194;2023-03-12T13:19:23;52;47;
72793;PMS5003;63436;26.334;50.194;2023-03-12T13:21:45;49;47;
72793;PMS5003;63436;26.334;50.194;2023-03-12T13:24:11;49;43;
72793;PMS5003;63436;26.334;50.194;2023-03-12T13:26:40;48;48;
72793;PMS5003;63436;26.334;50.194;2023-03-12T13:31:33;45;41;
72793;PMS5003;63436;26.334;50.194;2023-03-12T13:33:52;50;48;
72793;PMS5003;63436;26.334;50.194;2023-03-12T13:36:21;53;53;
72793;PMS5003;63436;26.334;50.194;2023-03-12T13:41:07;50;47;
72793;PMS5003;63436;26.334;50.194;2023-03-12T13:43:41;55;53;
72793;PMS5003;63436;26.334;50.194;2023-03-12T13:45:59;58;56;
72793;PMS5003;63436;26.334;50.194;2023-03-12T13:48:23;56;52;
72793;PMS5003;63436;26.334;50.194;2023-03-12T13:50:50;50;50;
72793;PMS5003;63436;26.334;50.194;2023-03-12T13:53:15;55;51;
72793;PMS5003;63436;26.334;50.194;2023-03-12T13:55:44;58;54;
72793;PMS5003;63436;26.334;50.194;2023-03-12T13:58:07;56;52;
72793;PMS5003;63436;26.334;50.194;2023-03-12T14:00:31;50;47;
72793;PMS5003;63436;26.334;50.194;2023-03-12T14:02:56;58;53;
72793;PMS5003;63436;26.334;50.194;2023-03-12T14:05:23;55;54;
72793;PMS5003;63436;26.334;50.194;2023-03-12T14:07:50;46;45;
72793;PMS5003;63436;26.334;50.194;2023-03-12T14:10:15;59;53;
72793;PMS5003;63436;26.334;50.194;2023-03-12T14:12:39;51;47;
72793;PMS5003;63436;26.334;50.194;2023-03-12T14:15:04;53;52;
72793;PMS5003;63436;26.334;50.194;2023-03-12T14:17:29;49;48;
72793;PMS5003;63436;26.334;50.194;2023-03-12T14:19:56;51;47;
72793;PMS5003;63436;26.334;50.194;2023-03-12T14:22:18;47;47;
72793;PMS5003;63436;26.334;50.194;2023-03-12T14:24:47;48;47;
72793;PMS5003;63436;26.334;50.194;2023-03-12T14:27:11;56;53;
72793;PMS5003;63436;26.334;50.194;2023-03-12T14:29:35;65;57;
72793;PMS5003;63436;26.334;50.194;2023-03-12T14:32:02;49;49;
72793;PMS5003;63436;26.334;50.194;2023-03-12T14:34:27;61;59;
72793;PMS5003;63436;26.334;50.194;2023-03-12T14:36:54;48;47;
72793;PMS5003;63436;26.334;50.194;2023-03-12T14:39:22;51;48;
72793;PMS5003;63436;26.334;50.194;2023-03-12T14:41:43;56;53;
72793;PMS5003;63436;26.334;50.194;2023-03-12T14:44:16;56;53;
72793;PMS5003;63436;26.334;50.194;2023-03-12T14:46:32;52;49;
72793;PMS5003;63436;26.334;50.194;2023-03-12T14:48:58;52;51;
72793;PMS5003;63436;26.334;50.194;2023-03-12T14:51:24;51;51;
72793;PMS5003;63436;26.334;50.194;2023-03-12T14:53:49;54;52;
72793;PMS5003;63436;26.334;50.194;2023-03-12T14:58:41;52;49;
72793;PMS5003;63436;26.334;50.194;2023-03-12T15:01:06;52;50;
72793;PMS5003;63436;26.334;50.194;2023-03-12T15:03:32;52;50;
72793;PMS5003;63436;26.334;50.194;2023-03-12T15:05:57;51;50;
72793;PMS5003;63436;26.334;50.194;2023-03-12T15:08:22;56;52;
72793;PMS5003;63436;26.334;50.194;2023-03-12T15:10:48;60;53;
72793;PMS5003;63436;26.334;50.194;2023-03-12T15:13:13;52;52;
72793;PMS5003;63436;26.334;50.194;2023-03-12T15:15:38;59;52;
72793;PMS5003;63436;26.334;50.194;2023-03-12T15:18:04;55;51;
72793;PMS5003;63436;26.334;50.194;2023-03-12T15:20:29;51;48;
72793;PMS5003;63436;26.334;50.194;2023-03-12T15:22:54;54;53;
72793;PMS5003;63436;26.334;50.194;2023-03-12T15:25:21;54;52;
72793;PMS5003;63436;26.334;50.194;2023-03-12T15:27:46;63;56;
72793;PMS5003;63436;26.334;50.194;2023-03-12T15:32:36;56;54;
72793;PMS5003;63436;26.334;50.194;2023-03-12T15:35:10;58;55;
72793;PMS5003;63436;26.334;50.194;2023-03-12T15:37:28;54;51;
72793;PMS5003;63436;26.334;50.194;2023-03-12T15:39:55;57;52;
72793;PMS5003;63436;26.334;50.194;2023-03-12T15:42:19;55;53;
72793;PMS5003;63436;26.334;50.194;2023-03-12T15:44:44;55;51;
72793;PMS5003;63436;26.334;50.194;2023-03-12T15:47:11;51;48;
72793;PMS5003;63436;26.334;50.194;2023-03-12T15:49:35;55;53;
72793;PMS5003;63436;26.334;50.194;2023-03-12T15:52:03;52;47;
72793;PMS5003;63436;26.334;50.194;2023-03-12T15:54:28;48;45;
72793;PMS5003;63436;26.334;50.194;2023-03-12T15:56:52;62;53;
72793;PMS5003;63436;26.334;50.194;2023-03-12T15:59:19;51;49;
72793;PMS5003;63436;26.334;50.194;2023-03-12T16:01:43;51;47;
72793;PMS5003;63436;26.334;50.194;2023-03-12T16:04:07;46;45;
72793;PMS5003;63436;26.334;50.194;2023-03-12T16:06:33;47;46;
72793;PMS5003;63436;26.334;50.194;2023-03-12T16:09:00;47;39;
72793;PMS5003;63436;26.334;50.194;2023-03-12T16:11:24;47;43;
72793;PMS5003;63436;26.334;50.194;2023-03-12T16:13:51;43;40;
72793;PMS5003;63436;26.334;50.194;2023-03-12T16:16:15;45;43;
72793;PMS5003;63436;26.334;50.194;2023-03-12T16:18:40;46;46;
72793;PMS5003;63436;26.334;50.194;2023-03-12T16:21:05;47;43;